Ajax — V7JF9 — position and weather

sailwx.info

Track history (hours):
 
Tides and Currents Weather Stations Pressure Air Temp Water Temp Dewpoint Dewpoint Depression Visibility Wind Speed Wind Dir Waves Ship Positions

Ajax

Last reported at 2018-Aug-01 17:27 UTC. Time now 2018-Aug-14 19:27 UTC.
Position N 34°52' W 018°18'.
Warning: this ship's position is 13 days out of date.

Length 225 m; draft 8.2 m.

Type: Cargo ship. MMSI: 538002511.

Date/timePositionNaut miles runAvg speedWind from/ knotsBaromVisibWave heightAir tempDewpointWater temp
2018-Aug-01 17:27N 34°52' W 018°18'3213.7
2018-Aug-01 15:06N 35°19' W 017°56'813.8
2018-Aug-01 14:33N 35°25' W 017°51'813.9
2018-Aug-01 13:57N 35°32' W 017°45'813.8
2018-Aug-01 13:24N 35°39' W 017°40'1214.0
2018-Aug-01 12:32N 35°49' W 017°32'113.8
2018-Aug-01 12:29N 35°49' W 017°32'1913.7
2018-Aug-01 11:05N 36°05' W 017°19'113.6
2018-Aug-01 10:58N 36°07' W 017°18'613.6
2018-Aug-01 10:30N 36°12' W 017°13'713.6
2018-Aug-01 10:00N 36°18' W 017°09'713.7
2018-Aug-01 09:30N 36°23' W 017°04'713.7
2018-Aug-01 09:00N 36°29' W 016°59'1513.7
2018-Aug-01 07:55N 36°42' W 016°49'913.6
2018-Aug-01 07:15N 36°49' W 016°43'5713.7
2018-Aug-01 03:05N 37°37' W 016°03'1013.3
2018-Aug-01 02:19N 37°45' W 015°56'813.8
2018-Aug-01 01:43N 37°52' W 015°51'  
2018-Jul-29 02:25N 49°45' W 003°33'614.1
2018-Jul-29 02:01N 49°48' W 003°25'714.5
2018-Jul-29 01:31N 49°52' W 003°15'714.4
2018-Jul-29 01:00N 49°56' W 003°05'714.1
2018-Jul-29 00:30N 49°59' W 002°56'713.8
2018-Jul-29 00:01N 50°01' W 002°46'713.5
2018-Jul-28 23:31N 50°03' W 002°36'5810.6
2018-Jul-28 18:03N 50°18' W 001°09'012.5
2018-Jul-28 18:00N 50°18' W 001°08'813.4
2018-Jul-28 17:24N 50°20' W 000°56'614.1
2018-Jul-28 17:00N 50°22' W 000°47'714.4
2018-Jul-28 16:30N 50°24' W 000°36'914.8
2018-Jul-28 15:56N 50°26' W 000°24'614.5
2018-Jul-28 15:30N 50°28' W 000°14'714.0
2018-Jul-28 15:00N 50°29' W 000°04'813.8
2018-Jul-28 14:27N 50°32' E 000°08'613.6
2018-Jul-28 14:00N 50°33' E 000°17'713.4
2018-Jul-28 13:30N 50°35' E 000°27'612.9
2018-Jul-28 13:00N 50°37' E 000°37'612.1
2018-Jul-28 12:31N 50°40' E 000°45'611.8
2018-Jul-28 12:00N 50°44' E 000°52'611.4
2018-Jul-28 11:30N 50°47' E 000°59'611.3
2018-Jul-28 11:00N 50°51' E 001°06'611.6
2018-Jul-28 10:30N 50°55' E 001°13'611.8
2018-Jul-28 10:01N 50°59' E 001°19'612.7
2018-Jul-28 09:30N 51°04' E 001°27'714.4
2018-Jul-28 09:00N 51°08' E 001°36'815.1
2018-Jul-28 08:30N 51°13' E 001°45'815.8
2018-Jul-28 08:00N 51°20' E 001°52'815.3
2018-Jul-28 07:30N 51°26' E 001°58'815.0
2018-Jul-28 07:00N 51°32' E 002°06'714.8
2018-Jul-28 06:31N 51°37' E 002°14'3513.2
2018-Jul-28 03:51N 52°02' E 002°55'513.2
2018-Jul-28 03:30N 52°02' E 003°02'713.3
2018-Jul-28 03:00N 52°03' E 003°13'713.2
2018-Jul-28 02:30N 52°03' E 003°24'612.9
2018-Jul-28 02:00N 52°04' E 003°34'712.8
2018-Jul-28 01:29N 52°04' E 003°45'511.4
2018-Jul-28 01:00N 52°03' E 003°54'4 7.8
2018-Jul-28 00:30N 52°01' E 003°59'612.1
2018-Jul-28 00:00N 51°58' E 004°08'611.4
2018-Jul-27 23:30N 51°55' E 004°15'2 4.1
2018-Jul-27 23:00N 51°53' E 004°17'1 1.5
2018-Jul-27 22:30N 51°54' E 004°16'0 0.0
2018-Jul-27 22:00N 51°54' E 004°16'0 0.0
2018-Jul-27 21:30N 51°54' E 004°16'0 0.0
2018-Jul-27 21:00N 51°54' E 004°16'0 0.0
2018-Jul-27 20:30N 51°54' E 004°16'0 0.0
2018-Jul-27 20:00N 51°54' E 004°16'0 0.0
2018-Jul-27 19:30N 51°54' E 004°16'0 0.0
2018-Jul-27 19:00N 51°54' E 004°16'0 0.0
2018-Jul-27 18:30N 51°54' E 004°16'0 0.0
2018-Jul-27 18:00N 51°54' E 004°16'0 0.0
2018-Jul-27 17:30N 51°54' E 004°16'0 0.0
2018-Jul-27 16:57N 51°54' E 004°16'0 0.0
2018-Jul-27 16:30N 51°54' E 004°16'0 0.0
2018-Jul-27 15:57N 51°54' E 004°16'0 0.0
2018-Jul-27 15:30N 51°54' E 004°16'0 0.0
2018-Jul-27 15:00N 51°54' E 004°16'0 0.0
2018-Jul-27 14:30N 51°54' E 004°16'0 0.0
2018-Jul-27 14:00N 51°54' E 004°16'0 0.0
2018-Jul-27 13:30N 51°54' E 004°16'0 0.0
2018-Jul-27 13:00N 51°54' E 004°16'0 0.0
2018-Jul-27 12:30N 51°54' E 004°16'0 0.0
2018-Jul-27 12:00N 51°54' E 004°16'0 0.0
2018-Jul-27 11:30N 51°54' E 004°16'0 0.0
2018-Jul-27 11:00N 51°54' E 004°16'0 0.0
2018-Jul-27 10:30N 51°54' E 004°16'0 0.0
2018-Jul-27 10:00N 51°54' E 004°16'0 0.0
2018-Jul-27 09:30N 51°54' E 004°16'0 0.0
2018-Jul-27 09:00N 51°54' E 004°16'0 0.0
2018-Jul-27 08:30N 51°54' E 004°16'0 0.0
2018-Jul-27 08:00N 51°54' E 004°16'0 0.0
2018-Jul-27 07:30N 51°54' E 004°16'0 0.0
2018-Jul-27 07:00N 51°54' E 004°16'0 0.0
2018-Jul-27 06:30N 51°54' E 004°16'0 0.0
2018-Jul-27 06:00N 51°54' E 004°16'0 0.0
2018-Jul-27 05:30N 51°54' E 004°16'0 0.0
2018-Jul-27 05:00N 51°54' E 004°16'0 0.0
2018-Jul-27 04:30N 51°54' E 004°16'0 0.0
2018-Jul-27 04:00N 51°54' E 004°16'0 0.0
2018-Jul-27 03:30N 51°54' E 004°16'0 0.0
2018-Jul-27 03:00N 51°54' E 004°16'0 0.0
2018-Jul-27 02:30N 51°54' E 004°16'0 0.0
2018-Jul-27 02:00N 51°54' E 004°16'0 0.0
2018-Jul-27 01:30N 51°54' E 004°16'0 0.0
2018-Jul-27 01:00N 51°54' E 004°16'0 0.0
2018-Jul-27 00:30N 51°54' E 004°16'0 0.0
2018-Jul-27 00:00N 51°54' E 004°16'0 0.0
2018-Jul-26 23:30N 51°54' E 004°16'0 0.0
2018-Jul-26 23:00N 51°54' E 004°16'0 0.0
2018-Jul-26 22:30N 51°54' E 004°16'0 0.0
2018-Jul-26 22:00N 51°54' E 004°16'0 0.0
2018-Jul-26 21:30N 51°54' E 004°16'0 0.0
2018-Jul-26 21:00N 51°54' E 004°16'0 0.0
2018-Jul-26 20:30N 51°54' E 004°16'0 0.0
2018-Jul-26 20:00N 51°54' E 004°16'0 0.0
2018-Jul-26 19:30N 51°54' E 004°16'0 0.0
2018-Jul-26 19:00N 51°54' E 004°16'0 0.0
2018-Jul-26 18:30N 51°54' E 004°16'0 0.0
2018-Jul-26 18:00N 51°54' E 004°16'0 0.0
2018-Jul-26 17:30N 51°54' E 004°16'0 0.0
2018-Jul-26 17:00N 51°54' E 004°16'0 0.0
2018-Jul-26 16:30N 51°54' E 004°16'0 0.0
2018-Jul-26 16:00N 51°54' E 004°16'0 0.0
2018-Jul-26 15:30N 51°54' E 004°16'0 0.0
2018-Jul-26 15:00N 51°54' E 004°16'0 0.0
2018-Jul-26 14:30N 51°54' E 004°16'0 0.0
2018-Jul-26 14:00N 51°54' E 004°16'0 0.0
2018-Jul-26 13:30N 51°54' E 004°16'0 0.0
2018-Jul-26 13:00N 51°54' E 004°16'0 0.0
2018-Jul-26 12:30N 51°54' E 004°16'0 0.0
2018-Jul-26 12:00N 51°54' E 004°16'0 0.0
2018-Jul-26 11:30N 51°54' E 004°16'0 0.0
2018-Jul-26 11:00N 51°54' E 004°16'0 0.0
2018-Jul-26 10:30N 51°54' E 004°16'0 0.0
2018-Jul-26 10:00N 51°54' E 004°16'0 0.0
2018-Jul-26 09:30N 51°54' E 004°16'0 0.0
2018-Jul-26 09:00N 51°54' E 004°16'0 0.0
2018-Jul-26 08:30N 51°54' E 004°16'0 0.0
2018-Jul-26 08:00N 51°54' E 004°16'0 0.0
2018-Jul-26 07:30N 51°54' E 004°16'0 0.0
2018-Jul-26 07:00N 51°54' E 004°16'0 0.0
2018-Jul-26 06:30N 51°54' E 004°16'0 0.0
2018-Jul-26 06:00N 51°54' E 004°16'0 0.0
2018-Jul-26 05:30N 51°54' E 004°16'0 0.0
2018-Jul-26 05:00N 51°54' E 004°16'0 0.0
2018-Jul-26 04:30N 51°54' E 004°16'0 0.0
2018-Jul-26 04:00N 51°54' E 004°16'0 0.0
2018-Jul-26 03:30N 51°54' E 004°16'0 0.0
2018-Jul-26 03:00N 51°54' E 004°16'0 0.0
2018-Jul-26 02:30N 51°54' E 004°16'0 0.0
2018-Jul-26 02:00N 51°54' E 004°16'0 0.0
2018-Jul-26 01:30N 51°54' E 004°16'0 0.0
2018-Jul-26 01:00N 51°54' E 004°16'0 0.0
2018-Jul-26 00:30N 51°54' E 004°16'0 0.0
2018-Jul-26 00:00N 51°54' E 004°16'0 0.0
2018-Jul-25 23:30N 51°54' E 004°16'0 0.0
2018-Jul-25 23:00N 51°54' E 004°16'0 0.0
2018-Jul-25 22:30N 51°54' E 004°16'0 0.0
2018-Jul-25 22:00N 51°54' E 004°16'0 0.0
2018-Jul-25 21:30N 51°54' E 004°16'0 0.0
2018-Jul-25 21:00N 51°54' E 004°16'0 0.0
2018-Jul-25 20:30N 51°54' E 004°16'0 0.0
2018-Jul-25 20:00N 51°54' E 004°16'0 0.0
2018-Jul-25 19:30N 51°54' E 004°16'0 0.0
2018-Jul-25 19:00N 51°54' E 004°16'0 0.0
2018-Jul-25 18:30N 51°54' E 004°16'0 0.0
2018-Jul-25 18:00N 51°54' E 004°16'0 0.0
2018-Jul-25 17:30N 51°54' E 004°16'0 0.0
2018-Jul-25 17:00N 51°54' E 004°16'0 0.0
2018-Jul-25 16:30N 51°54' E 004°16'0 0.0
2018-Jul-25 16:00N 51°54' E 004°16'0 0.0
2018-Jul-25 15:30N 51°54' E 004°16'0 0.0
2018-Jul-25 15:00N 51°54' E 004°16'0 0.0
2018-Jul-25 14:30N 51°54' E 004°16'0 0.0
2018-Jul-25 14:00N 51°54' E 004°16'0 0.0
2018-Jul-25 13:30N 51°54' E 004°16'0 0.0
2018-Jul-25 13:00N 51°54' E 004°16'0 0.0
2018-Jul-25 12:30N 51°54' E 004°16'0 0.0
2018-Jul-25 12:00N 51°54' E 004°16'0 0.0
2018-Jul-25 11:30N 51°54' E 004°16'0 0.0
2018-Jul-25 11:00N 51°54' E 004°16'0 0.0
2018-Jul-25 10:30N 51°54' E 004°16'0 0.0
2018-Jul-25 10:00N 51°54' E 004°16'0 0.0
2018-Jul-25 09:30N 51°54' E 004°16'0 0.0
2018-Jul-25 09:00N 51°54' E 004°16'0 0.0
2018-Jul-25 08:30N 51°54' E 004°16'0 0.0
2018-Jul-25 08:00N 51°54' E 004°16'0 0.0
2018-Jul-25 07:30N 51°54' E 004°16'0 0.0
2018-Jul-25 07:00N 51°54' E 004°16'0 0.0
2018-Jul-25 06:30N 51°54' E 004°16'0 0.0
2018-Jul-25 06:00N 51°54' E 004°16'0 0.0
2018-Jul-25 05:30N 51°54' E 004°16'0 0.0
2018-Jul-25 05:00N 51°54' E 004°16'0 0.0
2018-Jul-25 04:30N 51°54' E 004°16'0 0.0
2018-Jul-25 04:00N 51°54' E 004°16'0 0.0
2018-Jul-25 03:30N 51°54' E 004°16'0 0.0
2018-Jul-25 03:00N 51°54' E 004°16'0 0.0
2018-Jul-25 02:30N 51°54' E 004°16'0 0.0
2018-Jul-25 02:00N 51°54' E 004°16'0 0.0
2018-Jul-25 01:30N 51°54' E 004°16'0 0.0
2018-Jul-25 01:00N 51°54' E 004°16'0 0.0
2018-Jul-25 00:30N 51°54' E 004°16'0 0.0
2018-Jul-25 00:00N 51°54' E 004°16'0 0.0
2018-Jul-24 23:30N 51°54' E 004°16'0 0.0
2018-Jul-24 23:00N 51°54' E 004°16'0 0.0
2018-Jul-24 22:30N 51°54' E 004°16'0 0.0
2018-Jul-24 22:00N 51°54' E 004°16'0 0.0
2018-Jul-24 21:30N 51°54' E 004°16'0 0.0
2018-Jul-24 21:00N 51°54' E 004°16'0 0.0
2018-Jul-24 20:30N 51°54' E 004°16'0 0.0
2018-Jul-24 20:00N 51°54' E 004°16'0 0.0
2018-Jul-24 19:30N 51°54' E 004°16'0 0.0
2018-Jul-24 19:00N 51°54' E 004°16'0 0.0
2018-Jul-24 18:30N 51°54' E 004°16'0 0.0
2018-Jul-24 18:00N 51°54' E 004°16'0 0.0
2018-Jul-24 17:30N 51°54' E 004°16'0 0.0
2018-Jul-24 17:00N 51°54' E 004°16'0 0.0
2018-Jul-24 16:30N 51°54' E 004°16'0 0.0
2018-Jul-24 16:00N 51°54' E 004°16'0 0.0
2018-Jul-24 15:30N 51°54' E 004°16'0 0.0
2018-Jul-24 14:30N 51°54' E 004°16'0 0.0
2018-Jul-24 14:00N 51°54' E 004°16'0 0.0
2018-Jul-24 13:30N 51°54' E 004°16'0 0.0
2018-Jul-24 13:00N 51°54' E 004°16'0 0.0
2018-Jul-24 12:30N 51°54' E 004°16'0 0.0
2018-Jul-24 12:00N 51°54' E 004°16'0 0.0
2018-Jul-24 11:30N 51°54' E 004°16'0 0.0
2018-Jul-24 11:00N 51°54' E 004°16'0 0.0
2018-Jul-24 10:30N 51°54' E 004°16'0 0.0
2018-Jul-24 10:00N 51°54' E 004°16'0 0.0
2018-Jul-24 09:30N 51°54' E 004°16'0 0.0
2018-Jul-24 09:00N 51°54' E 004°16'0 0.0
2018-Jul-24 08:30N 51°54' E 004°16'0 0.0
2018-Jul-24 08:00N 51°54' E 004°16'0 0.0
2018-Jul-24 07:30N 51°54' E 004°16'0 0.0
2018-Jul-24 07:00N 51°54' E 004°16'0 0.0
2018-Jul-24 06:30N 51°54' E 004°16'0 0.0
2018-Jul-24 06:00N 51°54' E 004°16'0 0.0
2018-Jul-24 05:27N 51°54' E 004°16'0 0.0
2018-Jul-24 05:00N 51°54' E 004°16'0 0.0
2018-Jul-24 04:30N 51°54' E 004°16'0 0.0
2018-Jul-24 04:00N 51°54' E 004°16'0 0.0
2018-Jul-24 03:30N 51°54' E 004°16'0 0.0
2018-Jul-24 03:00N 51°54' E 004°16'0 0.0
2018-Jul-24 02:30N 51°54' E 004°16'0 0.0
2018-Jul-24 02:00N 51°54' E 004°16'0 0.0
2018-Jul-24 01:30N 51°54' E 004°16'0 0.0
2018-Jul-24 01:00N 51°54' E 004°16'0 0.0
2018-Jul-24 00:30N 51°54' E 004°16'0 0.0
2018-Jul-24 00:00N 51°54' E 004°16'0 0.0
2018-Jul-23 23:30N 51°54' E 004°16'0 0.0
2018-Jul-23 23:00N 51°54' E 004°16'0 0.0
2018-Jul-23 22:30N 51°54' E 004°16'0 0.0
2018-Jul-23 22:00N 51°54' E 004°16'0 0.0
2018-Jul-23 21:30N 51°54' E 004°16'0 0.0
2018-Jul-23 21:00N 51°54' E 004°16'0 0.0
2018-Jul-23 20:30N 51°54' E 004°16'0 0.0
2018-Jul-23 19:30N 51°54' E 004°16'0 0.0
2018-Jul-23 19:00N 51°54' E 004°16'0 0.0
2018-Jul-23 18:30N 51°54' E 004°16'0 0.0
2018-Jul-23 18:00N 51°54' E 004°16'0 0.0
2018-Jul-23 17:30N 51°54' E 004°16'0 0.0
2018-Jul-23 16:57N 51°54' E 004°16'0 0.0
2018-Jul-23 16:30N 51°54' E 004°16'0 0.0
2018-Jul-23 16:00N 51°54' E 004°16'0 0.0
2018-Jul-23 15:30N 51°54' E 004°16'0 0.0
2018-Jul-23 15:00N 51°54' E 004°16'0 0.0
2018-Jul-23 14:30N 51°54' E 004°16'0 0.0
2018-Jul-23 14:00N 51°54' E 004°16'0 0.0
2018-Jul-23 13:30N 51°54' E 004°16'0 0.0
2018-Jul-23 13:00N 51°54' E 004°16'0 0.0
2018-Jul-23 12:30N 51°54' E 004°16'0 0.0
2018-Jul-23 12:00N 51°54' E 004°16'0 0.0
2018-Jul-23 11:30N 51°54' E 004°16'0 0.0
2018-Jul-23 11:00N 51°54' E 004°16'0 0.0
2018-Jul-23 10:30N 51°54' E 004°16'0 0.0
2018-Jul-23 10:00N 51°54' E 004°16'0 0.0
2018-Jul-23 09:30N 51°54' E 004°16'0 0.0
2018-Jul-23 09:00N 51°54' E 004°16'0 0.0
2018-Jul-23 08:30N 51°54' E 004°16'0 0.0
2018-Jul-23 08:00N 51°54' E 004°16'0 0.0
2018-Jul-23 07:30N 51°54' E 004°16'0 0.0
2018-Jul-23 07:00N 51°54' E 004°16'0 0.0
2018-Jul-23 06:30N 51°54' E 004°16'0 0.0
2018-Jul-23 06:00N 51°54' E 004°16'0 0.0
2018-Jul-23 05:30N 51°54' E 004°16'0 0.0
2018-Jul-23 05:00N 51°54' E 004°16'0 0.0
2018-Jul-23 04:30N 51°54' E 004°16'0 0.0
2018-Jul-23 04:00N 51°54' E 004°16'0 0.0
2018-Jul-23 03:30N 51°54' E 004°16'0 0.0
2018-Jul-23 03:00N 51°54' E 004°16'0 0.0
2018-Jul-23 02:30N 51°54' E 004°16'0 0.0
2018-Jul-23 02:00N 51°54' E 004°16'0 0.0
2018-Jul-23 01:30N 51°54' E 004°16'0 0.0
2018-Jul-23 01:00N 51°54' E 004°16'0 0.0
2018-Jul-23 00:30N 51°54' E 004°16'0 0.0
2018-Jul-23 00:00N 51°54' E 004°16'0 0.0
2018-Jul-22 23:30N 51°54' E 004°16'0 0.0
2018-Jul-22 23:00N 51°54' E 004°16'0 0.0
2018-Jul-22 22:30N 51°54' E 004°16'0 0.0
2018-Jul-22 22:00N 51°54' E 004°16'0 0.0
2018-Jul-22 21:30N 51°54' E 004°16'0 0.0
2018-Jul-22 21:00N 51°54' E 004°16'0 0.0
2018-Jul-22 20:30N 51°54' E 004°16'0 0.0
2018-Jul-22 20:00N 51°54' E 004°16'0 0.0
2018-Jul-22 19:30N 51°54' E 004°16'0 0.0
2018-Jul-22 19:00N 51°54' E 004°16'0 0.0
2018-Jul-22 18:30N 51°54' E 004°16'0 0.0
2018-Jul-22 18:00N 51°54' E 004°16'0 0.0
2018-Jul-22 17:30N 51°54' E 004°16'  
Track history (hours):
 
Tides and Currents Weather Stations Pressure Air Temp Water Temp Dewpoint Dewpoint Depression Visibility Wind Speed Wind Dir Waves Ship Positions

Ajax

Last reported at 2018-Aug-01 17:27 UTC. Time now 2018-Aug-14 19:27 UTC.
Position N 34°52' W 018°18'.
Warning: this ship's position is 13 days out of date.

Length 225 m; draft 8.2 m.

Type: Cargo ship. MMSI: 538002511.

Date/timePositionNaut miles runAvg speedWind from/ knotsBaromVisibWave heightAir tempDewpointWater temp
2018-Aug-01 17:27N 34°52' W 018°18'3213.7
2018-Aug-01 15:06N 35°19' W 017°56'813.8
2018-Aug-01 14:33N 35°25' W 017°51'813.9
2018-Aug-01 13:57N 35°32' W 017°45'813.8
2018-Aug-01 13:24N 35°39' W 017°40'1214.0
2018-Aug-01 12:32N 35°49' W 017°32'113.8
2018-Aug-01 12:29N 35°49' W 017°32'1913.7
2018-Aug-01 11:05N 36°05' W 017°19'113.6
2018-Aug-01 10:58N 36°07' W 017°18'613.6
2018-Aug-01 10:30N 36°12' W 017°13'713.6
2018-Aug-01 10:00N 36°18' W 017°09'713.7
2018-Aug-01 09:30N 36°23' W 017°04'713.7
2018-Aug-01 09:00N 36°29' W 016°59'1513.7
2018-Aug-01 07:55N 36°42' W 016°49'913.6
2018-Aug-01 07:15N 36°49' W 016°43'5713.7
2018-Aug-01 03:05N 37°37' W 016°03'1013.3
2018-Aug-01 02:19N 37°45' W 015°56'813.8
2018-Aug-01 01:43N 37°52' W 015°51'  
2018-Jul-29 02:25N 49°45' W 003°33'614.1
2018-Jul-29 02:01N 49°48' W 003°25'714.5
2018-Jul-29 01:31N 49°52' W 003°15'714.4
2018-Jul-29 01:00N 49°56' W 003°05'714.1
2018-Jul-29 00:30N 49°59' W 002°56'713.8
2018-Jul-29 00:01N 50°01' W 002°46'713.5
2018-Jul-28 23:31N 50°03' W 002°36'5810.6
2018-Jul-28 18:03N 50°18' W 001°09'012.5
2018-Jul-28 18:00N 50°18' W 001°08'813.4
2018-Jul-28 17:24N 50°20' W 000°56'614.1
2018-Jul-28 17:00N 50°22' W 000°47'714.4
2018-Jul-28 16:30N 50°24' W 000°36'914.8
2018-Jul-28 15:56N 50°26' W 000°24'614.5
2018-Jul-28 15:30N 50°28' W 000°14'714.0
2018-Jul-28 15:00N 50°29' W 000°04'813.8
2018-Jul-28 14:27N 50°32' E 000°08'613.6
2018-Jul-28 14:00N 50°33' E 000°17'713.4
2018-Jul-28 13:30N 50°35' E 000°27'612.9
2018-Jul-28 13:00N 50°37' E 000°37'612.1
2018-Jul-28 12:31N 50°40' E 000°45'611.8
2018-Jul-28 12:00N 50°44' E 000°52'611.4
2018-Jul-28 11:30N 50°47' E 000°59'611.3
2018-Jul-28 11:00N 50°51' E 001°06'611.6
2018-Jul-28 10:30N 50°55' E 001°13'611.8
2018-Jul-28 10:01N 50°59' E 001°19'612.7
2018-Jul-28 09:30N 51°04' E 001°27'714.4
2018-Jul-28 09:00N 51°08' E 001°36'815.1
2018-Jul-28 08:30N 51°13' E 001°45'815.8
2018-Jul-28 08:00N 51°20' E 001°52'815.3
2018-Jul-28 07:30N 51°26' E 001°58'815.0
2018-Jul-28 07:00N 51°32' E 002°06'714.8
2018-Jul-28 06:31N 51°37' E 002°14'3513.2
2018-Jul-28 03:51N 52°02' E 002°55'513.2
2018-Jul-28 03:30N 52°02' E 003°02'713.3
2018-Jul-28 03:00N 52°03' E 003°13'713.2
2018-Jul-28 02:30N 52°03' E 003°24'612.9
2018-Jul-28 02:00N 52°04' E 003°34'712.8
2018-Jul-28 01:29N 52°04' E 003°45'511.4
2018-Jul-28 01:00N 52°03' E 003°54'4 7.8
2018-Jul-28 00:30N 52°01' E 003°59'612.1
2018-Jul-28 00:00N 51°58' E 004°08'611.4
2018-Jul-27 23:30N 51°55' E 004°15'2 4.1
2018-Jul-27 23:00N 51°53' E 004°17'1 1.5
2018-Jul-27 22:30N 51°54' E 004°16'0 0.0
2018-Jul-27 22:00N 51°54' E 004°16'0 0.0
2018-Jul-27 21:30N 51°54' E 004°16'0 0.0
2018-Jul-27 21:00N 51°54' E 004°16'0 0.0
2018-Jul-27 20:30N 51°54' E 004°16'0 0.0
2018-Jul-27 20:00N 51°54' E 004°16'0 0.0
2018-Jul-27 19:30N 51°54' E 004°16'0 0.0
2018-Jul-27 19:00N 51°54' E 004°16'0 0.0
2018-Jul-27 18:30N 51°54' E 004°16'0 0.0
2018-Jul-27 18:00N 51°54' E 004°16'0 0.0
2018-Jul-27 17:30N 51°54' E 004°16'0 0.0
2018-Jul-27 16:57N 51°54' E 004°16'0 0.0
2018-Jul-27 16:30N 51°54' E 004°16'0 0.0
2018-Jul-27 15:57N 51°54' E 004°16'0 0.0
2018-Jul-27 15:30N 51°54' E 004°16'0 0.0
2018-Jul-27 15:00N 51°54' E 004°16'0 0.0
2018-Jul-27 14:30N 51°54' E 004°16'0 0.0
2018-Jul-27 14:00N 51°54' E 004°16'0 0.0
2018-Jul-27 13:30N 51°54' E 004°16'0 0.0
2018-Jul-27 13:00N 51°54' E 004°16'0 0.0
2018-Jul-27 12:30N 51°54' E 004°16'0 0.0
2018-Jul-27 12:00N 51°54' E 004°16'0 0.0
2018-Jul-27 11:30N 51°54' E 004°16'0 0.0
2018-Jul-27 11:00N 51°54' E 004°16'0 0.0
2018-Jul-27 10:30N 51°54' E 004°16'0 0.0
2018-Jul-27 10:00N 51°54' E 004°16'0 0.0
2018-Jul-27 09:30N 51°54' E 004°16'0 0.0
2018-Jul-27 09:00N 51°54' E 004°16'0 0.0
2018-Jul-27 08:30N 51°54' E 004°16'0 0.0
2018-Jul-27 08:00N 51°54' E 004°16'0 0.0
2018-Jul-27 07:30N 51°54' E 004°16'0 0.0
2018-Jul-27 07:00N 51°54' E 004°16'0 0.0
2018-Jul-27 06:30N 51°54' E 004°16'0 0.0
2018-Jul-27 06:00N 51°54' E 004°16'0 0.0
2018-Jul-27 05:30N 51°54' E 004°16'0 0.0
2018-Jul-27 05:00N 51°54' E 004°16'0 0.0
2018-Jul-27 04:30N 51°54' E 004°16'0 0.0
2018-Jul-27 04:00N 51°54' E 004°16'0 0.0
2018-Jul-27 03:30N 51°54' E 004°16'0 0.0
2018-Jul-27 03:00N 51°54' E 004°16'0 0.0
2018-Jul-27 02:30N 51°54' E 004°16'0 0.0
2018-Jul-27 02:00N 51°54' E 004°16'0 0.0
2018-Jul-27 01:30N 51°54' E 004°16'0 0.0
2018-Jul-27 01:00N 51°54' E 004°16'0 0.0
2018-Jul-27 00:30N 51°54' E 004°16'0 0.0
2018-Jul-27 00:00N 51°54' E 004°16'0 0.0
2018-Jul-26 23:30N 51°54' E 004°16'0 0.0
2018-Jul-26 23:00N 51°54' E 004°16'0 0.0
2018-Jul-26 22:30N 51°54' E 004°16'0 0.0
2018-Jul-26 22:00N 51°54' E 004°16'0 0.0
2018-Jul-26 21:30N 51°54' E 004°16'0 0.0
2018-Jul-26 21:00N 51°54' E 004°16'0 0.0
2018-Jul-26 20:30N 51°54' E 004°16'0 0.0
2018-Jul-26 20:00N 51°54' E 004°16'0 0.0
2018-Jul-26 19:30N 51°54' E 004°16'0 0.0
2018-Jul-26 19:00N 51°54' E 004°16'0 0.0
2018-Jul-26 18:30N 51°54' E 004°16'0 0.0
2018-Jul-26 18:00N 51°54' E 004°16'0 0.0
2018-Jul-26 17:30N 51°54' E 004°16'0 0.0
2018-Jul-26 17:00N 51°54' E 004°16'0 0.0
2018-Jul-26 16:30N 51°54' E 004°16'0 0.0
2018-Jul-26 16:00N 51°54' E 004°16'0 0.0
2018-Jul-26 15:30N 51°54' E 004°16'0 0.0
2018-Jul-26 15:00N 51°54' E 004°16'0 0.0
2018-Jul-26 14:30N 51°54' E 004°16'0 0.0
2018-Jul-26 14:00N 51°54' E 004°16'0 0.0
2018-Jul-26 13:30N 51°54' E 004°16'0 0.0
2018-Jul-26 13:00N 51°54' E 004°16'0 0.0
2018-Jul-26 12:30N 51°54' E 004°16'0 0.0
2018-Jul-26 12:00N 51°54' E 004°16'0 0.0
2018-Jul-26 11:30N 51°54' E 004°16'0 0.0
2018-Jul-26 11:00N 51°54' E 004°16'0 0.0
2018-Jul-26 10:30N 51°54' E 004°16'0 0.0
2018-Jul-26 10:00N 51°54' E 004°16'0 0.0
2018-Jul-26 09:30N 51°54' E 004°16'0 0.0
2018-Jul-26 09:00N 51°54' E 004°16'0 0.0
2018-Jul-26 08:30N 51°54' E 004°16'0 0.0
2018-Jul-26 08:00N 51°54' E 004°16'0 0.0
2018-Jul-26 07:30N 51°54' E 004°16'0 0.0
2018-Jul-26 07:00N 51°54' E 004°16'0 0.0
2018-Jul-26 06:30N 51°54' E 004°16'0 0.0
2018-Jul-26 06:00N 51°54' E 004°16'0 0.0
2018-Jul-26 05:30N 51°54' E 004°16'0 0.0
2018-Jul-26 05:00N 51°54' E 004°16'0 0.0
2018-Jul-26 04:30N 51°54' E 004°16'0 0.0
2018-Jul-26 04:00N 51°54' E 004°16'0 0.0
2018-Jul-26 03:30N 51°54' E 004°16'0 0.0
2018-Jul-26 03:00N 51°54' E 004°16'0 0.0
2018-Jul-26 02:30N 51°54' E 004°16'0 0.0
2018-Jul-26 02:00N 51°54' E 004°16'0 0.0
2018-Jul-26 01:30N 51°54' E 004°16'0 0.0
2018-Jul-26 01:00N 51°54' E 004°16'0 0.0
2018-Jul-26 00:30N 51°54' E 004°16'0 0.0
2018-Jul-26 00:00N 51°54' E 004°16'0 0.0
2018-Jul-25 23:30N 51°54' E 004°16'0 0.0
2018-Jul-25 23:00N 51°54' E 004°16'0 0.0
2018-Jul-25 22:30N 51°54' E 004°16'0 0.0
2018-Jul-25 22:00N 51°54' E 004°16'0 0.0
2018-Jul-25 21:30N 51°54' E 004°16'0 0.0
2018-Jul-25 21:00N 51°54' E 004°16'0 0.0
2018-Jul-25 20:30N 51°54' E 004°16'0 0.0
2018-Jul-25 20:00N 51°54' E 004°16'0 0.0
2018-Jul-25 19:30N 51°54' E 004°16'0 0.0
2018-Jul-25 19:00N 51°54' E 004°16'0 0.0
2018-Jul-25 18:30N 51°54' E 004°16'0 0.0
2018-Jul-25 18:00N 51°54' E 004°16'0 0.0
2018-Jul-25 17:30N 51°54' E 004°16'0 0.0
2018-Jul-25 17:00N 51°54' E 004°16'0 0.0
2018-Jul-25 16:30N 51°54' E 004°16'0 0.0
2018-Jul-25 16:00N 51°54' E 004°16'0 0.0
2018-Jul-25 15:30N 51°54' E 004°16'0 0.0
2018-Jul-25 15:00N 51°54' E 004°16'0 0.0
2018-Jul-25 14:30N 51°54' E 004°16'0 0.0
2018-Jul-25 14:00N 51°54' E 004°16'0 0.0
2018-Jul-25 13:30N 51°54' E 004°16'0 0.0
2018-Jul-25 13:00N 51°54' E 004°16'0 0.0
2018-Jul-25 12:30N 51°54' E 004°16'0 0.0
2018-Jul-25 12:00N 51°54' E 004°16'0 0.0
2018-Jul-25 11:30N 51°54' E 004°16'0 0.0
2018-Jul-25 11:00N 51°54' E 004°16'0 0.0
2018-Jul-25 10:30N 51°54' E 004°16'0 0.0
2018-Jul-25 10:00N 51°54' E 004°16'0 0.0
2018-Jul-25 09:30N 51°54' E 004°16'0 0.0
2018-Jul-25 09:00N 51°54' E 004°16'0 0.0
2018-Jul-25 08:30N 51°54' E 004°16'0 0.0
2018-Jul-25 08:00N 51°54' E 004°16'0 0.0
2018-Jul-25 07:30N 51°54' E 004°16'0 0.0
2018-Jul-25 07:00N 51°54' E 004°16'0 0.0
2018-Jul-25 06:30N 51°54' E 004°16'0 0.0
2018-Jul-25 06:00N 51°54' E 004°16'0 0.0
2018-Jul-25 05:30N 51°54' E 004°16'0 0.0
2018-Jul-25 05:00N 51°54' E 004°16'0 0.0
2018-Jul-25 04:30N 51°54' E 004°16'0 0.0
2018-Jul-25 04:00N 51°54' E 004°16'0 0.0
2018-Jul-25 03:30N 51°54' E 004°16'0 0.0
2018-Jul-25 03:00N 51°54' E 004°16'0 0.0
2018-Jul-25 02:30N 51°54' E 004°16'0 0.0
2018-Jul-25 02:00N 51°54' E 004°16'0 0.0
2018-Jul-25 01:30N 51°54' E 004°16'0 0.0
2018-Jul-25 01:00N 51°54' E 004°16'0 0.0
2018-Jul-25 00:30N 51°54' E 004°16'0 0.0
2018-Jul-25 00:00N 51°54' E 004°16'0 0.0
2018-Jul-24 23:30N 51°54' E 004°16'0 0.0
2018-Jul-24 23:00N 51°54' E 004°16'0 0.0
2018-Jul-24 22:30N 51°54' E 004°16'0 0.0
2018-Jul-24 22:00N 51°54' E 004°16'0 0.0
2018-Jul-24 21:30N 51°54' E 004°16'0 0.0
2018-Jul-24 21:00N 51°54' E 004°16'0 0.0
2018-Jul-24 20:30N 51°54' E 004°16'0 0.0
2018-Jul-24 20:00N 51°54' E 004°16'0 0.0
2018-Jul-24 19:30N 51°54' E 004°16'0 0.0
2018-Jul-24 19:00N 51°54' E 004°16'0 0.0
2018-Jul-24 18:30N 51°54' E 004°16'0 0.0
2018-Jul-24 18:00N 51°54' E 004°16'0 0.0
2018-Jul-24 17:30N 51°54' E 004°16'0 0.0
2018-Jul-24 17:00N 51°54' E 004°16'0 0.0
2018-Jul-24 16:30N 51°54' E 004°16'0 0.0
2018-Jul-24 16:00N 51°54' E 004°16'0 0.0
2018-Jul-24 15:30N 51°54' E 004°16'0 0.0
2018-Jul-24 14:30N 51°54' E 004°16'0 0.0
2018-Jul-24 14:00N 51°54' E 004°16'0 0.0
2018-Jul-24 13:30N 51°54' E 004°16'0 0.0
2018-Jul-24 13:00N 51°54' E 004°16'0 0.0
2018-Jul-24 12:30N 51°54' E 004°16'0 0.0
2018-Jul-24 12:00N 51°54' E 004°16'0 0.0
2018-Jul-24 11:30N 51°54' E 004°16'0 0.0
2018-Jul-24 11:00N 51°54' E 004°16'0 0.0
2018-Jul-24 10:30N 51°54' E 004°16'0 0.0
2018-Jul-24 10:00N 51°54' E 004°16'0 0.0
2018-Jul-24 09:30N 51°54' E 004°16'0 0.0
2018-Jul-24 09:00N 51°54' E 004°16'0 0.0
2018-Jul-24 08:30N 51°54' E 004°16'0 0.0
2018-Jul-24 08:00N 51°54' E 004°16'0 0.0
2018-Jul-24 07:30N 51°54' E 004°16'0 0.0
2018-Jul-24 07:00N 51°54' E 004°16'0 0.0
2018-Jul-24 06:30N 51°54' E 004°16'0 0.0
2018-Jul-24 06:00N 51°54' E 004°16'0 0.0
2018-Jul-24 05:27N 51°54' E 004°16'0 0.0
2018-Jul-24 05:00N 51°54' E 004°16'0 0.0
2018-Jul-24 04:30N 51°54' E 004°16'0 0.0
2018-Jul-24 04:00N 51°54' E 004°16'0 0.0
2018-Jul-24 03:30N 51°54' E 004°16'0 0.0
2018-Jul-24 03:00N 51°54' E 004°16'0 0.0
2018-Jul-24 02:30N 51°54' E 004°16'0 0.0
2018-Jul-24 02:00N 51°54' E 004°16'0 0.0
2018-Jul-24 01:30N 51°54' E 004°16'0 0.0
2018-Jul-24 01:00N 51°54' E 004°16'0 0.0
2018-Jul-24 00:30N 51°54' E 004°16'0 0.0
2018-Jul-24 00:00N 51°54' E 004°16'0 0.0
2018-Jul-23 23:30N 51°54' E 004°16'0 0.0
2018-Jul-23 23:00N 51°54' E 004°16'0 0.0
2018-Jul-23 22:30N 51°54' E 004°16'0 0.0
2018-Jul-23 22:00N 51°54' E 004°16'0 0.0
2018-Jul-23 21:30N 51°54' E 004°16'0 0.0
2018-Jul-23 21:00N 51°54' E 004°16'0 0.0
2018-Jul-23 20:30N 51°54' E 004°16'0 0.0
2018-Jul-23 19:30N 51°54' E 004°16'0 0.0
2018-Jul-23 19:00N 51°54' E 004°16'0 0.0
2018-Jul-23 18:30N 51°54' E 004°16'0 0.0
2018-Jul-23 18:00N 51°54' E 004°16'0 0.0
2018-Jul-23 17:30N 51°54' E 004°16'0 0.0
2018-Jul-23 16:57N 51°54' E 004°16'0 0.0
2018-Jul-23 16:30N 51°54' E 004°16'0 0.0
2018-Jul-23 16:00N 51°54' E 004°16'0 0.0
2018-Jul-23 15:30N 51°54' E 004°16'0 0.0
2018-Jul-23 15:00N 51°54' E 004°16'0 0.0
2018-Jul-23 14:30N 51°54' E 004°16'0 0.0
2018-Jul-23 14:00N 51°54' E 004°16'0 0.0
2018-Jul-23 13:30N 51°54' E 004°16'0 0.0
2018-Jul-23 13:00N 51°54' E 004°16'0 0.0
2018-Jul-23 12:30N 51°54' E 004°16'0 0.0
2018-Jul-23 12:00N 51°54' E 004°16'0 0.0
2018-Jul-23 11:30N 51°54' E 004°16'0 0.0
2018-Jul-23 11:00N 51°54' E 004°16'0 0.0
2018-Jul-23 10:30N 51°54' E 004°16'0 0.0
2018-Jul-23 10:00N 51°54' E 004°16'0 0.0
2018-Jul-23 09:30N 51°54' E 004°16'0 0.0
2018-Jul-23 09:00N 51°54' E 004°16'0 0.0
2018-Jul-23 08:30N 51°54' E 004°16'0 0.0
2018-Jul-23 08:00N 51°54' E 004°16'0 0.0
2018-Jul-23 07:30N 51°54' E 004°16'0 0.0
2018-Jul-23 07:00N 51°54' E 004°16'0 0.0
2018-Jul-23 06:30N 51°54' E 004°16'0 0.0
2018-Jul-23 06:00N 51°54' E 004°16'0 0.0
2018-Jul-23 05:30N 51°54' E 004°16'0 0.0
2018-Jul-23 05:00N 51°54' E 004°16'0 0.0
2018-Jul-23 04:30N 51°54' E 004°16'0 0.0
2018-Jul-23 04:00N 51°54' E 004°16'0 0.0
2018-Jul-23 03:30N 51°54' E 004°16'0 0.0
2018-Jul-23 03:00N 51°54' E 004°16'0 0.0
2018-Jul-23 02:30N 51°54' E 004°16'0 0.0
2018-Jul-23 02:00N 51°54' E 004°16'0 0.0
2018-Jul-23 01:30N 51°54' E 004°16'0 0.0
2018-Jul-23 01:00N 51°54' E 004°16'0 0.0
2018-Jul-23 00:30N 51°54' E 004°16'0 0.0
2018-Jul-23 00:00N 51°54' E 004°16'0 0.0
2018-Jul-22 23:30N 51°54' E 004°16'0 0.0
2018-Jul-22 23:00N 51°54' E 004°16'0 0.0
2018-Jul-22 22:30N 51°54' E 004°16'0 0.0
2018-Jul-22 22:00N 51°54' E 004°16'0 0.0
2018-Jul-22 21:30N 51°54' E 004°16'0 0.0
2018-Jul-22 21:00N 51°54' E 004°16'0 0.0
2018-Jul-22 20:30N 51°54' E 004°16'0 0.0
2018-Jul-22 20:00N 51°54' E 004°16'0 0.0
2018-Jul-22 19:30N 51°54' E 004°16'0 0.0
2018-Jul-22 19:00N 51°54' E 004°16'0 0.0
2018-Jul-22 18:30N 51°54' E 004°16'0 0.0
2018-Jul-22 18:00N 51°54' E 004°16'0 0.0
2018-Jul-22 17:30N 51°54' E 004°16'  

Dump ship's entire track history